Airport View

Enter AWOS ICAO identifier for current METAR.

ex. KFNL

KRVL 251625Z AUTO 06006KT 10SM FEW100 08/01 A3023 RMK AO2

25 Oct 2020 16:29

Frequency: 123.85

Phone: 717-667-3993

Other Area AWOS: KUNV - KLHV - KSEG - KAOO

TAF AMD KUNV 251411Z 2514/2612 04006KT P6SM SKC FM251500 04004KT P6SM OVC080 FM251800 09004KT P6SM OVC040 FM260000 09003KT P6SM OVC025 FM260200 10003KT P6SM VCSH OVC015 FM260500 13002KT 4SM -SHRA BR OVC009